sensor_id;sensor_type;location;lat;lon;timestamp;pressure;altitude;pressure_sealevel;temperature;humidity
15884;BME280;8040;50.254;10.960;2024-03-23T00:55:30;97397.13;;;10.86;66.44
15884;BME280;8040;50.254;10.960;2024-03-23T00:57:56;97351.41;;;10.59;66.47
15884;BME280;8040;50.254;10.960;2024-03-23T01:00:21;97353.13;;;10.63;66.75
15884;BME280;8040;50.254;10.960;2024-03-23T01:02:46;97362.56;;;10.66;66.59
15884;BME280;8040;50.254;10.960;2024-03-23T01:05:12;97365.09;;;10.71;67.03
15884;BME280;8040;50.254;10.960;2024-03-23T01:07:37;97371.97;;;10.68;66.94
15884;BME280;8040;50.254;10.960;2024-03-23T01:10:03;97371.16;;;10.68;67.42
15884;BME280;8040;50.254;10.960;2024-03-23T01:12:29;97348.84;;;10.45;67.25
15884;BME280;8040;50.254;10.960;2024-03-23T01:14:54;97364.63;;;10.60;67.28
15884;BME280;8040;50.254;10.960;2024-03-23T01:17:20;97368.44;;;10.59;67.24
15884;BME280;8040;50.254;10.960;2024-03-23T01:19:45;97310.75;;;10.25;67.35
15884;BME280;8040;50.254;10.960;2024-03-23T01:22:10;97336.41;;;10.36;67.42
15884;BME280;8040;50.254;10.960;2024-03-23T01:24:36;97311.56;;;10.17;67.37
15884;BME280;8040;50.254;10.960;2024-03-23T01:27:01;97342.31;;;10.38;67.18
15884;BME280;8040;50.254;10.960;2024-03-23T01:29:27;97290.84;;;10.04;67.09
15884;BME280;8040;50.254;10.960;2024-03-23T01:31:52;97295.44;;;10.03;67.21
15884;BME280;8040;50.254;10.960;2024-03-23T01:34:18;97343.91;;;10.30;67.57
15884;BME280;8040;50.254;10.960;2024-03-23T01:36:44;97272.50;;;9.84;67.24
15884;BME280;8040;50.254;10.960;2024-03-23T01:39:11;97333.09;;;10.22;68.20
15884;BME280;8040;50.254;10.960;2024-03-23T01:41:37;97311.09;;;10.06;68.14
15884;BME280;8040;50.254;10.960;2024-03-23T01:44:05;97283.81;;;9.94;68.63
15884;BME280;8040;50.254;10.960;2024-03-23T01:46:39;97296.53;;;9.94;68.67
15884;BME280;8040;50.254;10.960;2024-03-23T01:49:07;97316.34;;;10.11;69.23
15884;BME280;8040;50.254;10.960;2024-03-23T01:51:33;97302.28;;;10.01;68.73
15884;BME280;8040;50.254;10.960;2024-03-23T01:54:00;97296.69;;;9.97;69.15
15884;BME280;8040;50.254;10.960;2024-03-23T01:56:33;97313.00;;;10.14;68.93
15884;BME280;8040;50.254;10.960;2024-03-23T01:59:01;97308.84;;;10.17;69.13
15884;BME280;8040;50.254;10.960;2024-03-23T02:01:26;97300.72;;;10.17;69.57
15884;BME280;8040;50.254;10.960;2024-03-23T02:03:51;97297.34;;;10.20;69.56
15884;BME280;8040;50.254;10.960;2024-03-23T02:06:17;97255.28;;;9.97;69.39
15884;BME280;8040;50.254;10.960;2024-03-23T02:08:43;97275.88;;;10.15;69.21
15884;BME280;8040;50.254;10.960;2024-03-23T02:11:09;97282.22;;;10.27;68.89
15884;BME280;8040;50.254;10.960;2024-03-23T02:13:34;97256.41;;;10.21;68.89
15884;BME280;8040;50.254;10.960;2024-03-23T02:16:00;97249.84;;;10.14;68.77
15884;BME280;8040;50.254;10.960;2024-03-23T02:18:25;97264.97;;;10.32;69.20
15884;BME280;8040;50.254;10.960;2024-03-23T02:20:51;97266.25;;;10.34;69.01
15884;BME280;8040;50.254;10.960;2024-03-23T02:23:17;97212.41;;;9.99;69.04
15884;BME280;8040;50.254;10.960;2024-03-23T02:25:43;97230.75;;;10.10;69.36
15884;BME280;8040;50.254;10.960;2024-03-23T02:28:09;97237.59;;;10.08;69.54
15884;BME280;8040;50.254;10.960;2024-03-23T02:30:35;97208.13;;;9.89;70.34
15884;BME280;8040;50.254;10.960;2024-03-23T02:33:01;97215.44;;;9.97;70.60
15884;BME280;8040;50.254;10.960;2024-03-23T02:35:26;97144.09;;;9.51;70.22
15884;BME280;8040;50.254;10.960;2024-03-23T02:37:51;97226.75;;;10.08;70.43
15884;BME280;8040;50.254;10.960;2024-03-23T02:40:18;97193.00;;;9.80;70.49
15884;BME280;8040;50.254;10.960;2024-03-23T02:42:43;97180.06;;;9.77;70.61
15884;BME280;8040;50.254;10.960;2024-03-23T02:45:09;97227.88;;;10.07;70.27
15884;BME280;8040;50.254;10.960;2024-03-23T02:47:34;97195.69;;;9.97;70.18
15884;BME280;8040;50.254;10.960;2024-03-23T02:50:00;97180.72;;;9.99;70.34
15884;BME280;8040;50.254;10.960;2024-03-23T02:52:25;97168.31;;;9.81;70.05
15884;BME280;8040;50.254;10.960;2024-03-23T02:54:50;97123.88;;;9.57;70.28
15884;BME280;8040;50.254;10.960;2024-03-23T02:57:16;97163.34;;;9.92;70.08
15884;BME280;8040;50.254;10.960;2024-03-23T02:59:41;97136.13;;;9.80;70.20
15884;BME280;8040;50.254;10.960;2024-03-23T03:02:07;97182.47;;;10.04;70.31
15884;BME280;8040;50.254;10.960;2024-03-23T03:04:33;97149.66;;;9.80;70.46
15884;BME280;8040;50.254;10.960;2024-03-23T03:06:58;97079.59;;;9.53;70.18
15884;BME280;8040;50.254;10.960;2024-03-23T03:09:24;97099.19;;;9.67;70.22
15884;BME280;8040;50.254;10.960;2024-03-23T03:11:49;97096.50;;;9.67;70.33
15884;BME280;8040;50.254;10.960;2024-03-23T03:14:15;97118.75;;;9.81;70.54
15884;BME280;8040;50.254;10.960;2024-03-23T03:16:40;97143.56;;;9.91;70.82
15884;BME280;8040;50.254;10.960;2024-03-23T03:19:06;97141.16;;;9.98;70.51
15884;BME280;8040;50.254;10.960;2024-03-23T03:21:31;97137.50;;;10.03;70.95
15884;BME280;8040;50.254;10.960;2024-03-23T03:23:57;97097.56;;;9.83;70.56
15884;BME280;8040;50.254;10.960;2024-03-23T03:26:23;97107.44;;;9.87;70.41
15884;BME280;8040;50.254;10.960;2024-03-23T03:28:50;97087.22;;;9.85;70.48
15884;BME280;8040;50.254;10.960;2024-03-23T03:31:16;97070.97;;;9.76;70.36
15884;BME280;8040;50.254;10.960;2024-03-23T03:33:42;97097.38;;;10.05;69.95
15884;BME280;8040;50.254;10.960;2024-03-23T03:36:07;97065.53;;;9.85;69.93
15884;BME280;8040;50.254;10.960;2024-03-23T03:38:33;97108.34;;;10.17;69.55
15884;BME280;8040;50.254;10.960;2024-03-23T03:41:01;97109.59;;;10.19;69.10
15884;BME280;8040;50.254;10.960;2024-03-23T03:43:26;97102.78;;;10.13;69.03
15884;BME280;8040;50.254;10.960;2024-03-23T03:45:53;97071.88;;;10.06;69.99
15884;BME280;8040;50.254;10.960;2024-03-23T03:48:18;97063.88;;;10.01;70.82
15884;BME280;8040;50.254;10.960;2024-03-23T03:50:44;97041.63;;;9.87;71.67
15884;BME280;8040;50.254;10.960;2024-03-23T03:53:09;97118.97;;;10.30;72.95
15884;BME280;8040;50.254;10.960;2024-03-23T03:55:34;97035.06;;;9.96;73.54
15884;BME280;8040;50.254;10.960;2024-03-23T03:58:00;97070.09;;;10.18;74.58
15884;BME280;8040;50.254;10.960;2024-03-23T04:00:25;97054.84;;;10.05;75.48
15884;BME280;8040;50.254;10.960;2024-03-23T04:02:51;97004.72;;;9.74;76.77
15884;BME280;8040;50.254;10.960;2024-03-23T04:05:16;97035.06;;;10.05;77.20
15884;BME280;8040;50.254;10.960;2024-03-23T04:07:42;97061.31;;;10.13;77.66
15884;BME280;8040;50.254;10.960;2024-03-23T04:10:07;97041.22;;;10.14;78.05
15884;BME280;8040;50.254;10.960;2024-03-23T04:12:34;97006.09;;;9.88;78.60
15884;BME280;8040;50.254;10.960;2024-03-23T04:15:00;97049.66;;;10.21;78.54
15884;BME280;8040;50.254;10.960;2024-03-23T04:17:27;97003.09;;;9.90;78.48
15884;BME280;8040;50.254;10.960;2024-03-23T04:19:57;97045.00;;;10.30;79.01
15884;BME280;8040;50.254;10.960;2024-03-23T04:22:22;96984.91;;;9.90;78.76
15884;BME280;8040;50.254;10.960;2024-03-23T04:24:49;97058.38;;;10.35;79.31
15884;BME280;8040;50.254;10.960;2024-03-23T04:27:15;97006.69;;;10.11;78.79
15884;BME280;8040;50.254;10.960;2024-03-23T04:29:40;96979.00;;;9.97;78.80
15884;BME280;8040;50.254;10.960;2024-03-23T04:32:06;97003.88;;;10.28;79.08
15884;BME280;8040;50.254;10.960;2024-03-23T04:34:32;97026.06;;;10.50;79.01
15884;BME280;8040;50.254;10.960;2024-03-23T04:36:58;96980.66;;;10.18;78.84
15884;BME280;8040;50.254;10.960;2024-03-23T04:39:24;97026.06;;;10.50;79.36
15884;BME280;8040;50.254;10.960;2024-03-23T04:41:49;97007.59;;;10.44;79.51
15884;BME280;8040;50.254;10.960;2024-03-23T04:44:15;96974.63;;;10.42;79.41
15884;BME280;8040;50.254;10.960;2024-03-23T04:46:40;96957.91;;;10.40;78.99
15884;BME280;8040;50.254;10.960;2024-03-23T04:49:06;96944.53;;;10.35;79.96
15884;BME280;8040;50.254;10.960;2024-03-23T04:51:35;96977.03;;;10.64;79.71
15884;BME280;8040;50.254;10.960;2024-03-23T04:54:01;97006.69;;;10.81;80.50
15884;BME280;8040;50.254;10.960;2024-03-23T04:56:27;96970.47;;;10.65;80.19
15884;BME280;8040;50.254;10.960;2024-03-23T04:58:52;97006.00;;;10.92;80.16
15884;BME280;8040;50.254;10.960;2024-03-23T05:01:18;96963.72;;;10.71;80.05
15884;BME280;8040;50.254;10.960;2024-03-23T05:03:44;96991.88;;;10.99;79.94
15884;BME280;8040;50.254;10.960;2024-03-23T05:06:09;96975.84;;;10.94;79.08
15884;BME280;8040;50.254;10.960;2024-03-23T05:08:34;96907.19;;;10.61;79.49
15884;BME280;8040;50.254;10.960;2024-03-23T05:11:00;96973.38;;;11.01;80.00
15884;BME280;8040;50.254;10.960;2024-03-23T05:13:25;96972.50;;;11.09;80.48
15884;BME280;8040;50.254;10.960;2024-03-23T05:15:54;96933.53;;;10.93;80.44
15884;BME280;8040;50.254;10.960;2024-03-23T05:18:20;96925.19;;;10.98;81.02
15884;BME280;8040;50.254;10.960;2024-03-23T05:20:46;96895.72;;;10.76;80.97
15884;BME280;8040;50.254;10.960;2024-03-23T05:23:11;96947.53;;;11.15;80.98
15884;BME280;8040;50.254;10.960;2024-03-23T05:25:36;96912.31;;;10.95;81.38
15884;BME280;8040;50.254;10.960;2024-03-23T05:28:02;96912.09;;;11.00;81.42
15884;BME280;8040;50.254;10.960;2024-03-23T05:30:27;96841.78;;;10.62;81.43
15884;BME280;8040;50.254;10.960;2024-03-23T05:32:54;96911.88;;;11.05;81.35
15884;BME280;8040;50.254;10.960;2024-03-23T05:35:19;96905.66;;;11.04;81.54
15884;BME280;8040;50.254;10.960;2024-03-23T05:37:44;96872.03;;;10.85;81.49
15884;BME280;8040;50.254;10.960;2024-03-23T05:40:11;96946.69;;;11.35;81.54
15884;BME280;8040;50.254;10.960;2024-03-23T05:42:38;96884.72;;;11.05;81.30
15884;BME280;8040;50.254;10.960;2024-03-23T05:45:03;96937.31;;;11.45;81.20
15884;BME280;8040;50.254;10.960;2024-03-23T05:47:31;96916.09;;;11.26;80.74
15884;BME280;8040;50.254;10.960;2024-03-23T05:49:57;96927.72;;;11.47;81.45
15884;BME280;8040;50.254;10.960;2024-03-23T05:52:22;96869.63;;;11.16;81.70
15884;BME280;8040;50.254;10.960;2024-03-23T05:54:51;96893.31;;;11.39;82.07
15884;BME280;8040;50.254;10.960;2024-03-23T05:57:17;96912.91;;;11.57;81.97
15884;BME280;8040;50.254;10.960;2024-03-23T05:59:44;96865.56;;;11.34;81.84
15884;BME280;8040;50.254;10.960;2024-03-23T06:02:09;96854.03;;;11.25;81.28
15884;BME280;8040;50.254;10.960;2024-03-23T06:04:35;96871.94;;;11.50;81.31
15884;BME280;8040;50.254;10.960;2024-03-23T06:07:01;96888.72;;;11.64;81.69
15884;BME280;8040;50.254;10.960;2024-03-23T06:09:26;96900.13;;;11.69;82.05
15884;BME280;8040;50.254;10.960;2024-03-23T06:11:52;96884.22;;;11.68;82.28
15884;BME280;8040;50.254;10.960;2024-03-23T06:14:17;96875.94;;;11.64;82.26
15884;BME280;8040;50.254;10.960;2024-03-23T06:16:43;96859.06;;;11.59;82.50
15884;BME280;8040;50.254;10.960;2024-03-23T06:19:08;96880.25;;;11.89;82.76
15884;BME280;8040;50.254;10.960;2024-03-23T06:21:34;96899.13;;;12.10;82.34
15884;BME280;8040;50.254;10.960;2024-03-23T06:23:59;96816.09;;;11.61;82.66
15884;BME280;8040;50.254;10.960;2024-03-23T06:26:25;96874.44;;;12.03;82.38
15884;BME280;8040;50.254;10.960;2024-03-23T06:28:53;96893.56;;;12.18;82.26
15884;BME280;8040;50.254;10.960;2024-03-23T06:31:19;96904.31;;;12.27;82.17
15884;BME280;8040;50.254;10.960;2024-03-23T06:33:44;96874.44;;;12.03;81.47
15884;BME280;8040;50.254;10.960;2024-03-23T06:36:10;96895.72;;;12.13;81.02
15884;BME280;8040;50.254;10.960;2024-03-23T06:38:36;96907.81;;;12.27;80.78
15884;BME280;8040;50.254;10.960;2024-03-23T06:41:03;96867.41;;;12.14;80.90
15884;BME280;8040;50.254;10.960;2024-03-23T06:43:29;96913.78;;;12.45;80.18
15884;BME280;8040;50.254;10.960;2024-03-23T06:45:55;96905.19;;;12.43;79.87
15884;BME280;8040;50.254;10.960;2024-03-23T06:48:21;96867.47;;;12.29;79.25
15884;BME280;8040;50.254;10.960;2024-03-23T06:50:47;96837.72;;;12.21;78.79
15884;BME280;8040;50.254;10.960;2024-03-23T06:53:14;96867.81;;;12.40;78.29
15884;BME280;8040;50.254;10.960;2024-03-23T06:55:40;96901.41;;;12.59;77.65
15884;BME280;8040;50.254;10.960;2024-03-23T06:58:05;96876.72;;;12.52;78.62
15884;BME280;8040;50.254;10.960;2024-03-23T07:00:31;96945.09;;;12.78;77.71
15884;BME280;8040;50.254;10.960;2024-03-23T07:02:57;96937.56;;;12.60;77.49
15884;BME280;8040;50.254;10.960;2024-03-23T07:05:23;96943.69;;;12.57;74.18
15884;BME280;8040;50.254;10.960;2024-03-23T07:07:49;96905.88;;;12.40;73.27
15884;BME280;8040;50.254;10.960;2024-03-23T07:10:14;96898.38;;;12.49;73.07
15884;BME280;8040;50.254;10.960;2024-03-23T07:12:40;96971.03;;;12.88;70.63
15884;BME280;8040;50.254;10.960;2024-03-23T07:15:06;96946.25;;;12.65;69.54
15884;BME280;8040;50.254;10.960;2024-03-23T07:17:33;96966.06;;;12.90;69.30
15884;BME280;8040;50.254;10.960;2024-03-23T07:20:01;96948.84;;;12.74;68.23
15884;BME280;8040;50.254;10.960;2024-03-23T07:22:30;96959.25;;;12.96;68.07
15884;BME280;8040;50.254;10.960;2024-03-23T07:24:55;96962.63;;;12.93;68.27
15884;BME280;8040;50.254;10.960;2024-03-23T07:27:21;96990.31;;;12.95;66.81
15884;BME280;8040;50.254;10.960;2024-03-23T07:29:46;97014.34;;;12.93;65.76
15884;BME280;8040;50.254;10.960;2024-03-23T07:32:12;96953.19;;;12.63;66.93
15884;BME280;8040;50.254;10.960;2024-03-23T07:34:37;96974.22;;;12.90;66.68
15884;BME280;8040;50.254;10.960;2024-03-23T07:37:02;97020.31;;;13.22;65.41
15884;BME280;8040;50.254;10.960;2024-03-23T07:39:28;96963.66;;;13.00;64.94
15884;BME280;8040;50.254;10.960;2024-03-23T07:41:54;96970.00;;;12.92;63.16
15884;BME280;8040;50.254;10.960;2024-03-23T07:44:19;97003.44;;;12.93;61.98
15884;BME280;8040;50.254;10.960;2024-03-23T07:46:44;96976.41;;;12.72;63.35
15884;BME280;8040;50.254;10.960;2024-03-23T07:49:10;97030.56;;;13.01;63.95
15884;BME280;8040;50.254;10.960;2024-03-23T07:51:35;97007.53;;;12.87;62.53
15884;BME280;8040;50.254;10.960;2024-03-23T07:54:01;96996.97;;;12.46;62.37
15884;BME280;8040;50.254;10.960;2024-03-23T07:56:26;97064.50;;;12.68;62.69
15884;BME280;8040;50.254;10.960;2024-03-23T07:58:51;97042.97;;;12.39;63.64
15884;BME280;8040;50.254;10.960;2024-03-23T08:01:17;97031.28;;;12.14;63.13
15884;BME280;8040;50.254;10.960;2024-03-23T08:03:44;97036.94;;;11.97;62.31
15884;BME280;8040;50.254;10.960;2024-03-23T08:06:14;97049.69;;;11.85;62.59
15884;BME280;8040;50.254;10.960;2024-03-23T08:08:41;97114.03;;;11.93;62.09
15884;BME280;8040;50.254;10.960;2024-03-23T08:11:06;97093.72;;;11.58;61.48
15884;BME280;8040;50.254;10.960;2024-03-23T08:13:33;97147.78;;;11.71;62.17
15884;BME280;8040;50.254;10.960;2024-03-23T08:16:03;97095.00;;;11.40;62.67
15884;BME280;8040;50.254;10.960;2024-03-23T08:18:30;97144.03;;;11.64;62.89
15884;BME280;8040;50.254;10.960;2024-03-23T08:21:03;97156.25;;;11.49;62.15
15884;BME280;8040;50.254;10.960;2024-03-23T08:23:30;97135.50;;;11.24;63.50
15884;BME280;8040;50.254;10.960;2024-03-23T08:26:03;97124.25;;;11.14;63.93
15884;BME280;8040;50.254;10.960;2024-03-23T08:28:29;97161.59;;;11.17;63.23
15884;BME280;8040;50.254;10.960;2024-03-23T08:30:55;97143.44;;;10.80;62.92
15884;BME280;8040;50.254;10.960;2024-03-23T08:33:22;97191.34;;;10.76;61.89
15884;BME280;8040;50.254;10.960;2024-03-23T08:35:56;97217.31;;;10.31;60.35
15884;BME280;8040;50.254;10.960;2024-03-23T08:38:22;97248.38;;;10.42;60.95
15884;BME280;8040;50.254;10.960;2024-03-23T08:40:59;97268.97;;;10.34;60.38
15884;BME280;8040;50.254;10.960;2024-03-23T08:43:25;97274.88;;;10.36;60.68
15884;BME280;8040;50.254;10.960;2024-03-23T08:45:51;97280.16;;;10.33;58.85
15884;BME280;8040;50.254;10.960;2024-03-23T08:48:17;97261.66;;;9.75;59.31
15884;BME280;8040;50.254;10.960;2024-03-23T08:50:44;97247.16;;;9.80;61.02
15884;BME280;8040;50.254;10.960;2024-03-23T08:53:09;97287.28;;;9.95;60.52
15884;BME280;8040;50.254;10.960;2024-03-23T08:55:35;97313.25;;;9.96;61.37
15884;BME280;8040;50.254;10.960;2024-03-23T08:58:01;97282.66;;;9.78;59.33
15884;BME280;8040;50.254;10.960;2024-03-23T09:00:26;97248.28;;;9.79;62.01
15884;BME280;8040;50.254;10.960;2024-03-23T09:02:51;97297.53;;;10.23;60.87
15884;BME280;8040;50.254;10.960;2024-03-23T09:05:18;97327.97;;;10.46;57.92
15884;BME280;8040;50.254;10.960;2024-03-23T09:07:43;97293.66;;;10.41;58.34
15884;BME280;8040;50.254;10.960;2024-03-23T09:10:09;97320.16;;;10.44;56.79
15884;BME280;8040;50.254;10.960;2024-03-23T09:12:34;97351.53;;;10.71;56.98
15884;BME280;8040;50.254;10.960;2024-03-23T09:14:59;97306.13;;;10.34;54.60
15884;BME280;8040;50.254;10.960;2024-03-23T09:17:25;97363.84;;;10.43;56.28
15884;BME280;8040;50.254;10.960;2024-03-23T09:19:50;97374.38;;;10.36;56.15
15884;BME280;8040;50.254;10.960;2024-03-23T09:22:16;97278.06;;;9.79;57.05
15884;BME280;8040;50.254;10.960;2024-03-23T09:24:41;97369.09;;;10.22;56.27
15884;BME280;8040;50.254;10.960;2024-03-23T09:27:07;97376.44;;;10.22;55.80
15884;BME280;8040;50.254;10.960;2024-03-23T09:29:33;97322.50;;;9.69;55.52
15884;BME280;8040;50.254;10.960;2024-03-23T09:31:58;97341.31;;;9.91;57.45
15884;BME280;8040;50.254;10.960;2024-03-23T09:34:23;97391.75;;;10.35;57.60
15884;BME280;8040;50.254;10.960;2024-03-23T09:36:52;97382.63;;;10.22;55.41
15884;BME280;8040;50.254;10.960;2024-03-23T09:39:18;97367.50;;;10.13;55.75
15884;BME280;8040;50.254;10.960;2024-03-23T09:41:44;97349.25;;;9.79;55.54
15884;BME280;8040;50.254;10.960;2024-03-23T09:44:10;97326.28;;;9.60;55.85
15884;BME280;8040;50.254;10.960;2024-03-23T09:46:35;97358.97;;;9.80;55.83
15884;BME280;8040;50.254;10.960;2024-03-23T09:49:02;97423.28;;;10.22;55.18
15884;BME280;8040;50.254;10.960;2024-03-23T09:51:30;97420.09;;;10.20;55.19
15884;BME280;8040;50.254;10.960;2024-03-23T09:53:56;97371.16;;;10.08;55.88
15884;BME280;8040;50.254;10.960;2024-03-23T09:56:22;97400.97;;;10.68;56.69
15884;BME280;8040;50.254;10.960;2024-03-23T09:58:49;97403.84;;;10.63;52.06
15884;BME280;8040;50.254;10.960;2024-03-23T10:01:14;97441.34;;;10.86;51.46
15884;BME280;8040;50.254;10.960;2024-03-23T10:03:46;97446.28;;;10.93;51.83
15884;BME280;8040;50.254;10.960;2024-03-23T10:06:11;97423.66;;;10.72;51.67
15884;BME280;8040;50.254;10.960;2024-03-23T10:08:37;97446.63;;;10.91;51.13
15884;BME280;8040;50.254;10.960;2024-03-23T10:11:16;97412.78;;;10.80;49.73
15884;BME280;8040;50.254;10.960;2024-03-23T10:13:42;97404.34;;;10.82;48.27
15884;BME280;8040;50.254;10.960;2024-03-23T10:16:09;97456.31;;;11.18;48.18
15884;BME280;8040;50.254;10.960;2024-03-23T10:18:41;97433.66;;;11.14;48.30
15884;BME280;8040;50.254;10.960;2024-03-23T10:21:07;97476.09;;;11.27;47.10
15884;BME280;8040;50.254;10.960;2024-03-23T10:23:37;97451.19;;;11.25;47.46
15884;BME280;8040;50.254;10.960;2024-03-23T10:28:51;97432.38;;;11.11;48.33
15884;BME280;8040;50.254;10.960;2024-03-23T10:31:16;97437.00;;;11.02;47.47
15884;BME280;8040;50.254;10.960;2024-03-23T10:33:46;97434.47;;;11.06;49.29
15884;BME280;8040;50.254;10.960;2024-03-23T10:36:12;97374.63;;;10.94;48.93
15884;BME280;8040;50.254;10.960;2024-03-23T10:38:40;97453.03;;;11.50;48.77
15884;BME280;8040;50.254;10.960;2024-03-23T10:41:08;97469.78;;;11.69;48.12
15884;BME280;8040;50.254;10.960;2024-03-23T10:43:34;97481.59;;;11.73;45.35
15884;BME280;8040;50.254;10.960;2024-03-23T10:45:59;97450.56;;;11.82;45.90
15884;BME280;8040;50.254;10.960;2024-03-23T10:48:25;97482.00;;;12.21;45.04
15884;BME280;8040;50.254;10.960;2024-03-23T10:50:50;97444.56;;;12.26;47.40
15884;BME280;8040;50.254;10.960;2024-03-23T10:53:17;97480.75;;;12.68;45.72
15884;BME280;8040;50.254;10.960;2024-03-23T10:55:43;97500.72;;;12.51;44.55
15884;BME280;8040;50.254;10.960;2024-03-23T10:58:10;97430.25;;;12.38;47.61
15884;BME280;8040;50.254;10.960;2024-03-23T11:00:38;97500.13;;;12.87;45.31
15884;BME280;8040;50.254;10.960;2024-03-23T11:03:35;97504.53;;;12.59;43.64
15884;BME280;8040;50.254;10.960;2024-03-23T11:06:03;97476.31;;;12.63;45.50
15884;BME280;8040;50.254;10.960;2024-03-23T11:08:39;97497.41;;;12.87;46.20
15884;BME280;8040;50.254;10.960;2024-03-23T11:11:18;97430.38;;;12.62;45.12
15884;BME280;8040;50.254;10.960;2024-03-23T11:13:51;97483.34;;;12.85;43.55
15884;BME280;8040;50.254;10.960;2024-03-23T11:16:25;97423.09;;;12.54;43.07
15884;BME280;8040;50.254;10.960;2024-03-23T11:18:53;97474.66;;;12.71;42.95
15884;BME280;8040;50.254;10.960;2024-03-23T11:21:53;97488.91;;;12.68;47.08
15884;BME280;8040;50.254;10.960;2024-03-23T11:24:20;97501.81;;;12.59;43.89
15884;BME280;8040;50.254;10.960;2024-03-23T11:26:47;97462.47;;;12.27;43.62
15884;BME280;8040;50.254;10.960;2024-03-23T11:29:18;97464.38;;;12.27;44.45
15884;BME280;8040;50.254;10.960;2024-03-23T11:31:51;97508.66;;;12.36;43.51
15884;BME280;8040;50.254;10.960;2024-03-23T11:34:18;97501.25;;;12.16;43.29
15884;BME280;8040;50.254;10.960;2024-03-23T11:36:43;97484.84;;;12.04;46.24
15884;BME280;8040;50.254;10.960;2024-03-23T11:39:16;97550.72;;;12.38;50.24
15884;BME280;8040;50.254;10.960;2024-03-23T11:41:52;97490.09;;;11.63;52.57
15884;BME280;8040;50.254;10.960;2024-03-23T11:44:19;97544.50;;;11.92;54.78
15884;BME280;8040;50.254;10.960;2024-03-23T11:46:49;97529.28;;;11.99;54.02
15884;BME280;8040;50.254;10.960;2024-03-23T11:51:48;97481.38;;;11.86;54.89
15884;BME280;8040;50.254;10.960;2024-03-23T11:54:13;97517.13;;;11.97;55.36
15884;BME280;8040;50.254;10.960;2024-03-23T11:56:39;97516.28;;;11.42;52.75
15884;BME280;8040;50.254;10.960;2024-03-23T11:59:06;97490.34;;;11.15;54.63
15884;BME280;8040;50.254;10.960;2024-03-23T12:01:31;97500.50;;;11.35;52.60
15884;BME280;8040;50.254;10.960;2024-03-23T12:03:57;97455.19;;;11.19;53.51
15884;BME280;8040;50.254;10.960;2024-03-23T12:06:22;97449.44;;;11.20;52.12
15884;BME280;8040;50.254;10.960;2024-03-23T12:08:48;97458.97;;;11.43;53.71
15884;BME280;8040;50.254;10.960;2024-03-23T12:11:18;97446.09;;;11.23;53.36
15884;BME280;8040;50.254;10.960;2024-03-23T12:13:44;97503.81;;;11.58;54.78
15884;BME280;8040;50.254;10.960;2024-03-23T12:16:13;97502.56;;;11.47;52.56
15884;BME280;8040;50.254;10.960;2024-03-23T12:18:42;97489.34;;;11.37;53.20
15884;BME280;8040;50.254;10.960;2024-03-23T12:21:08;97434.53;;;11.35;56.73
15884;BME280;8040;50.254;10.960;2024-03-23T12:23:34;97481.13;;;11.62;50.47
15884;BME280;8040;50.254;10.960;2024-03-23T12:26:00;97477.19;;;11.97;52.18
15884;BME280;8040;50.254;10.960;2024-03-23T12:28:27;97476.91;;;12.19;49.16
15884;BME280;8040;50.254;10.960;2024-03-23T12:30:53;97446.91;;;12.07;48.31
15884;BME280;8040;50.254;10.960;2024-03-23T12:33:22;97481.63;;;12.31;46.19
15884;BME280;8040;50.254;10.960;2024-03-23T12:35:51;97479.81;;;12.43;47.70
15884;BME280;8040;50.254;10.960;2024-03-23T12:38:16;97471.38;;;12.07;46.94
15884;BME280;8040;50.254;10.960;2024-03-23T12:40:46;97467.97;;;11.81;46.88
15884;BME280;8040;50.254;10.960;2024-03-23T12:43:13;97474.81;;;11.33;48.59
15884;BME280;8040;50.254;10.960;2024-03-23T12:45:38;97504.50;;;11.46;47.88
15884;BME280;8040;50.254;10.960;2024-03-23T12:48:04;97502.41;;;11.35;46.91
15884;BME280;8040;50.254;10.960;2024-03-23T12:50:29;97500.38;;;11.32;48.32
15884;BME280;8040;50.254;10.960;2024-03-23T12:52:54;97480.25;;;11.16;48.12
15884;BME280;8040;50.254;10.960;2024-03-23T12:55:20;97500.13;;;11.54;48.13
15884;BME280;8040;50.254;10.960;2024-03-23T12:57:46;97493.63;;;11.46;46.57
15884;BME280;8040;50.254;10.960;2024-03-23T13:00:13;97511.16;;;11.57;48.16
15884;BME280;8040;50.254;10.960;2024-03-23T13:02:38;97468.22;;;11.42;46.84
15884;BME280;8040;50.254;10.960;2024-03-23T13:05:05;97462.47;;;11.61;45.87
15884;BME280;8040;50.254;10.960;2024-03-23T13:07:34;97432.59;;;11.61;42.85
15884;BME280;8040;50.254;10.960;2024-03-23T13:10:00;97463.69;;;11.72;42.51
15884;BME280;8040;50.254;10.960;2024-03-23T13:12:26;97432.88;;;11.68;42.66
15884;BME280;8040;50.254;10.960;2024-03-23T13:14:51;97482.31;;;11.90;40.61
15884;BME280;8040;50.254;10.960;2024-03-23T13:17:16;97445.97;;;11.66;42.75
15884;BME280;8040;50.254;10.960;2024-03-23T13:19:42;97454.34;;;11.44;40.21
15884;BME280;8040;50.254;10.960;2024-03-23T13:22:07;97469.97;;;11.47;42.36
15884;BME280;8040;50.254;10.960;2024-03-23T13:24:36;97486.63;;;11.91;42.86
15884;BME280;8040;50.254;10.960;2024-03-23T13:27:01;97447.69;;;12.08;41.49
15884;BME280;8040;50.254;10.960;2024-03-23T13:29:27;97438.66;;;12.45;40.55
15884;BME280;8040;50.254;10.960;2024-03-23T13:31:52;97452.22;;;12.94;43.50
15884;BME280;8040;50.254;10.960;2024-03-23T13:34:18;97476.66;;;13.03;38.22
15884;BME280;8040;50.254;10.960;2024-03-23T13:36:45;97422.53;;;12.81;42.16
15884;BME280;8040;50.254;10.960;2024-03-23T13:39:12;97452.41;;;12.69;38.99
15884;BME280;8040;50.254;10.960;2024-03-23T13:41:39;97467.28;;;12.71;43.75
15884;BME280;8040;50.254;10.960;2024-03-23T13:44:08;97504.31;;;12.84;40.84
15884;BME280;8040;50.254;10.960;2024-03-23T13:46:36;97500.63;;;12.89;43.66
15884;BME280;8040;50.254;10.960;2024-03-23T13:49:01;97463.16;;;12.65;43.53
15884;BME280;8040;50.254;10.960;2024-03-23T13:51:27;97456.88;;;12.53;43.51
15884;BME280;8040;50.254;10.960;2024-03-23T13:53:56;97489.88;;;12.72;43.18
15884;BME280;8040;50.254;10.960;2024-03-23T13:56:25;97470.56;;;12.65;44.79
15884;BME280;8040;50.254;10.960;2024-03-23T13:58:50;97502.00;;;12.95;43.19